createdAt,value
2022-08-11T00:00:43.568Z,17.73
2022-08-11T00:01:58.138Z,17.68
2022-08-11T00:03:12.526Z,17.70
2022-08-11T00:04:17.196Z,17.69
2022-08-11T00:05:22.158Z,17.68
2022-08-11T00:06:28.062Z,17.68
2022-08-11T00:07:34.314Z,17.65
2022-08-11T00:08:41.053Z,17.67
2022-08-11T00:09:43.875Z,17.68
2022-08-11T00:10:58.616Z,17.59
2022-08-11T00:12:03.195Z,17.57
2022-08-11T00:13:09.939Z,17.64
2022-08-11T00:14:21.846Z,17.54
2022-08-11T00:15:38.339Z,17.55
2022-08-11T00:16:43.694Z,17.54
2022-08-11T00:17:48.010Z,17.51
2022-08-11T00:18:55.737Z,17.52
2022-08-11T00:20:11.857Z,17.45
2022-08-11T00:21:21.097Z,17.43
2022-08-11T00:22:46.809Z,17.45
2022-08-11T00:24:04.296Z,17.39
2022-08-11T00:25:34.116Z,17.38
2022-08-11T00:26:41.236Z,17.36
2022-08-11T00:27:45.769Z,17.34
2022-08-11T00:28:55.203Z,17.36
2022-08-11T00:30:00.856Z,17.38
2022-08-11T00:31:12.054Z,17.35
2022-08-11T00:32:19.918Z,17.34
2022-08-11T00:33:44.235Z,17.32
2022-08-11T00:34:50.354Z,17.31
2022-08-11T00:36:00.990Z,17.25
2022-08-11T00:37:10.327Z,17.28
2022-08-11T00:38:14.626Z,17.28
2022-08-11T00:39:19.414Z,17.25
2022-08-11T00:40:44.151Z,17.32
2022-08-11T00:42:04.390Z,17.32
2022-08-11T00:44:01.132Z,17.24
2022-08-11T00:45:25.281Z,17.24
2022-08-11T00:46:37.469Z,17.43
2022-08-11T00:48:01.233Z,17.33
2022-08-11T00:49:03.844Z,17.22
2022-08-11T00:50:43.225Z,17.48
2022-08-11T00:54:00.127Z,17.30
2022-08-11T00:55:20.883Z,17.29
2022-08-11T00:56:53.292Z,17.25
2022-08-11T00:58:30.033Z,17.26
2022-08-11T00:59:49.389Z,17.19
2022-08-11T01:01:03.926Z,17.15
2022-08-11T01:02:39.505Z,17.11
2022-08-11T01:04:23.626Z,17.11
2022-08-11T01:05:55.588Z,17.07
2022-08-11T01:08:02.389Z,17.02
2022-08-11T01:09:22.638Z,17.04
2022-08-11T01:11:03.611Z,17.05
2022-08-11T01:12:20.131Z,17.05
2022-08-11T01:13:27.644Z,17.05
2022-08-11T01:14:58.384Z,17.14
2022-08-11T01:16:37.948Z,17.17
2022-08-11T01:17:44.001Z,17.24
2022-08-11T01:19:19.415Z,17.34
2022-08-11T01:20:49.407Z,17.25
2022-08-11T01:22:10.530Z,17.06
2022-08-11T01:23:27.751Z,17.09
2022-08-11T01:24:49.645Z,17.28
2022-08-11T01:25:57.794Z,17.24
2022-08-11T01:27:20.170Z,17.27
2022-08-11T01:28:59.676Z,17.22
2022-08-11T01:30:22.170Z,17.30
2022-08-11T01:31:59.987Z,17.30
2022-08-11T01:33:27.397Z,17.32
2022-08-11T01:35:12.757Z,17.33
2022-08-11T01:36:34.743Z,17.31
2022-08-11T01:37:52.155Z,17.41
2022-08-11T01:39:22.235Z,17.31
2022-08-11T01:40:45.563Z,17.29
2022-08-11T01:42:25.324Z,17.33
2022-08-11T01:44:24.449Z,17.23
2022-08-11T01:45:39.054Z,17.37
2022-08-11T01:46:54.511Z,17.31
2022-08-11T01:48:11.724Z,17.23
2022-08-11T01:50:08.550Z,17.33
2022-08-11T01:51:45.395Z,17.44
2022-08-11T01:53:05.541Z,17.35
2022-08-11T01:54:27.431Z,17.27
2022-08-11T01:55:51.082Z,17.35
2022-08-11T01:57:20.719Z,17.25
2022-08-11T01:58:43.839Z,17.32
2022-08-11T01:59:55.316Z,17.33
2022-08-11T02:01:28.281Z,17.29
2022-08-11T02:02:54.210Z,17.28
2022-08-11T02:04:17.780Z,17.37
2022-08-11T02:05:47.875Z,17.35
2022-08-11T02:07:24.658Z,17.28
2022-08-11T02:08:50.672Z,17.18
2022-08-11T02:10:59.435Z,17.37
2022-08-11T02:12:52.403Z,17.27
2022-08-11T02:14:16.634Z,17.16
2022-08-11T02:15:35.680Z,17.20
2022-08-11T02:16:46.843Z,17.35
2022-08-11T02:17:51.593Z,17.18
2022-08-11T02:19:31.176Z,17.12
2022-08-11T02:21:07.230Z,17.02
2022-08-11T02:22:36.712Z,17.20
2022-08-11T02:24:05.036Z,17.26
2022-08-11T02:25:31.546Z,17.41
2022-08-11T02:26:34.014Z,17.35
2022-08-11T02:27:46.056Z,17.50
2022-08-11T02:29:26.305Z,18.21
2022-08-11T02:30:47.259Z,18.87
2022-08-11T02:32:24.399Z,19.32
2022-08-11T02:33:38.790Z,19.68
2022-08-11T02:34:59.576Z,20.34
2022-08-11T02:36:09.020Z,20.53
2022-08-11T02:37:35.189Z,20.82
2022-08-11T02:39:25.355Z,21.35
2022-08-11T02:41:25.413Z,21.21
2022-08-11T02:43:01.542Z,21.19
2022-08-11T02:44:22.041Z,21.70
2022-08-11T02:46:01.675Z,22.01
2022-08-11T02:47:14.864Z,21.62
2022-08-11T02:48:52.476Z,21.95
2022-08-11T02:50:07.433Z,22.11
2022-08-11T02:51:47.473Z,21.89
2022-08-11T02:53:20.270Z,22.22
2022-08-11T02:54:53.087Z,22.23
2022-08-11T02:56:09.328Z,22.30
2022-08-11T02:57:35.236Z,22.45
2022-08-11T02:59:11.490Z,22.77
2022-08-11T03:00:16.857Z,22.81
2022-08-11T03:01:49.536Z,22.43
2022-08-11T03:03:24.480Z,22.50
2022-08-11T03:04:37.911Z,22.68
2022-08-11T03:06:06.166Z,22.87
2022-08-11T03:07:40.602Z,23.52
2022-08-11T03:09:19.750Z,23.38
2022-08-11T03:10:44.638Z,23.49
2022-08-11T03:12:26.902Z,22.73
2022-08-11T03:13:53.299Z,21.47
2022-08-11T03:15:23.332Z,20.73
2022-08-11T03:16:52.969Z,20.24
2022-08-11T03:18:28.477Z,19.63
2022-08-11T03:20:15.691Z,19.15
2022-08-11T03:22:01.931Z,19.17
2022-08-11T03:23:39.783Z,19.05
2022-08-11T03:24:44.904Z,18.85
2022-08-11T03:25:56.882Z,18.78
2022-08-11T03:27:01.817Z,18.80
2022-08-11T03:28:31.770Z,18.57
2022-08-11T03:29:42.840Z,18.63
2022-08-11T03:31:25.006Z,18.51
2022-08-11T03:32:35.126Z,18.76
2022-08-11T03:34:08.466Z,18.78
2022-08-11T03:35:21.131Z,18.82
2022-08-11T03:37:01.732Z,18.48
2022-08-11T03:38:11.389Z,18.43
2022-08-11T03:39:14.413Z,18.57
2022-08-11T03:40:38.131Z,18.73
2022-08-11T03:42:17.728Z,18.88
2022-08-11T03:43:58.461Z,18.73
2022-08-11T03:45:24.270Z,18.78
2022-08-11T03:46:39.972Z,18.78
2022-08-11T03:48:07.584Z,18.59
2022-08-11T03:49:19.119Z,18.36
2022-08-11T03:50:37.019Z,18.68
2022-08-11T03:51:58.557Z,18.59
2022-08-11T03:53:28.346Z,18.47
2022-08-11T03:54:48.128Z,18.38
2022-08-11T03:56:28.571Z,18.51
2022-08-11T03:57:53.202Z,18.44
2022-08-11T03:59:30.042Z,18.39
2022-08-11T04:01:09.844Z,18.88
2022-08-11T04:02:34.753Z,20.87
2022-08-11T04:04:18.910Z,22.33
2022-08-11T04:05:42.667Z,22.63
2022-08-11T04:07:17.540Z,23.57
2022-08-11T04:08:49.027Z,25.13
2022-08-11T04:10:01.232Z,25.13
2022-08-11T04:11:11.278Z,26.09
2022-08-11T04:12:45.687Z,26.16
2022-08-11T04:13:42.562Z,26.67
2022-08-11T04:15:38.312Z,27.40
2022-08-11T04:16:55.095Z,27.40
2022-08-11T04:18:44.911Z,26.78
2022-08-11T04:20:25.366Z,27.93
2022-08-11T04:21:58.499Z,28.35
2022-08-11T04:24:35.528Z,27.84
2022-08-11T04:25:09.992Z,28.58
2022-08-11T04:26:51.305Z,28.53
2022-08-11T04:28:31.827Z,29.17
2022-08-11T04:30:12.350Z,28.31
2022-08-11T04:32:06.281Z,27.68
2022-08-11T04:33:34.268Z,29.95
2022-08-11T04:34:42.990Z,31.50
2022-08-11T04:36:15.743Z,29.94
2022-08-11T04:37:36.278Z,30.17
2022-08-11T04:39:20.483Z,29.43
2022-08-11T04:40:41.321Z,30.25
2022-08-11T04:42:06.142Z,30.69
2022-08-11T04:44:02.226Z,29.59
2022-08-11T04:45:35.952Z,30.37
2022-08-11T04:47:13.443Z,30.39
2022-08-11T04:48:52.972Z,32.13
2022-08-11T04:50:20.288Z,31.32
2022-08-11T04:52:02.823Z,31.38
2022-08-11T04:53:57.448Z,31.00
2022-08-11T04:55:37.865Z,30.38
2022-08-11T04:57:02.595Z,31.15
2022-08-11T04:58:36.648Z,30.74
2022-08-11T05:00:25.744Z,31.36
2022-08-11T05:02:06.455Z,31.63
2022-08-11T05:03:38.091Z,31.76
2022-08-11T05:05:18.759Z,31.69
2022-08-11T05:07:15.139Z,30.99
2022-08-11T05:08:51.536Z,33.98
2022-08-11T05:10:07.681Z,34.05
2022-08-11T05:11:22.172Z,34.04
2022-08-11T05:12:30.565Z,33.21
2022-08-11T05:13:54.024Z,33.53
2022-08-11T05:15:16.711Z,33.53
2022-08-11T05:16:49.484Z,32.79
2022-08-11T05:18:35.832Z,34.24
2022-08-11T05:19:57.129Z,33.04
2022-08-11T05:21:25.167Z,33.18
2022-08-11T05:22:49.048Z,33.80
2022-08-11T05:24:17.101Z,33.89
2022-08-11T05:26:43.465Z,33.06
2022-08-11T05:27:34.388Z,32.95
2022-08-11T05:29:20.201Z,33.28
2022-08-11T05:30:47.678Z,31.95
2022-08-11T05:32:17.939Z,31.24
2022-08-11T05:34:06.246Z,32.70
2022-08-11T05:35:09.432Z,32.08
2022-08-11T05:36:28.224Z,33.78
2022-08-11T05:37:30.342Z,34.64
2022-08-11T05:38:54.862Z,34.49
2022-08-11T05:40:24.644Z,35.02
2022-08-11T05:41:49.436Z,33.96
2022-08-11T05:43:15.619Z,32.15
2022-08-11T05:44:38.447Z,31.83
2022-08-11T05:46:03.717Z,33.05
2022-08-11T05:47:26.278Z,33.91
2022-08-11T05:48:54.021Z,34.62
2022-08-11T05:50:15.882Z,33.48
2022-08-11T05:51:37.975Z,33.16
2022-08-11T05:52:59.307Z,33.31
2022-08-11T05:54:28.128Z,32.39
2022-08-11T05:56:02.413Z,34.24
2022-08-11T05:57:08.029Z,33.91
2022-08-11T05:58:13.647Z,33.76
2022-08-11T05:59:18.633Z,33.30
2022-08-11T06:00:21.305Z,32.98
2022-08-11T06:01:34.054Z,33.46
2022-08-11T06:02:54.326Z,32.96
2022-08-11T06:04:16.439Z,33.27
2022-08-11T06:05:19.698Z,33.34
2022-08-11T06:06:22.983Z,33.33
2022-08-11T06:07:48.461Z,33.66
2022-08-11T06:08:57.389Z,33.61
2022-08-11T06:10:03.759Z,32.22
2022-08-11T06:11:06.840Z,32.45
2022-08-11T06:12:21.946Z,32.29
2022-08-11T06:13:26.038Z,33.10
2022-08-11T06:14:29.658Z,31.78
2022-08-11T06:15:34.268Z,32.71
2022-08-11T06:16:37.512Z,31.70
2022-08-11T06:17:47.965Z,31.49
2022-08-11T06:18:50.222Z,33.21
2022-08-11T06:20:07.537Z,34.67
2022-08-11T06:21:11.808Z,33.39
2022-08-11T06:22:20.297Z,35.42
2022-08-11T06:23:24.378Z,34.05
2022-08-11T06:24:28.575Z,33.72
2022-08-11T06:25:33.179Z,33.04
2022-08-11T06:26:49.517Z,33.00
2022-08-11T06:27:58.164Z,34.43
2022-08-11T06:29:02.052Z,33.53
2022-08-11T06:30:13.895Z,32.87
2022-08-11T06:31:19.985Z,35.04
2022-08-11T06:32:26.467Z,34.56
2022-08-11T06:33:44.153Z,33.53
2022-08-11T06:34:55.533Z,33.11
2022-08-11T06:36:07.061Z,33.28
2022-08-11T06:37:47.054Z,32.72
2022-08-11T06:39:21.388Z,32.29
2022-08-11T06:40:36.942Z,34.25
2022-08-11T06:41:49.843Z,32.66
2022-08-11T06:43:06.056Z,32.06
2022-08-11T06:44:13.972Z,32.23
2022-08-11T06:45:21.048Z,32.27
2022-08-11T06:46:31.487Z,31.51
2022-08-11T06:47:35.094Z,33.02
2022-08-11T06:48:45.174Z,33.33
2022-08-11T06:50:07.712Z,32.07
2022-08-11T06:51:14.004Z,32.53
2022-08-11T06:52:34.805Z,33.72
2022-08-11T06:54:04.437Z,33.48
2022-08-11T06:55:57.673Z,32.04
2022-08-11T06:57:30.842Z,31.76
2022-08-11T06:58:59.061Z,32.62
2022-08-11T07:00:20.770Z,31.54
2022-08-11T07:01:55.044Z,33.83
2022-08-11T07:03:09.631Z,33.93
2022-08-11T07:04:15.132Z,33.52
2022-08-11T07:05:45.577Z,33.55
2022-08-11T07:07:20.432Z,33.58
2022-08-11T07:09:00.167Z,35.10
2022-08-11T07:10:44.381Z,33.41
2022-08-11T07:12:43.584Z,32.92
2022-08-11T07:14:05.372Z,32.21
2022-08-11T07:16:12.852Z,34.57
2022-08-11T07:16:53.205Z,32.61
2022-08-11T07:18:19.359Z,32.88
2022-08-11T07:19:45.009Z,33.74
2022-08-11T07:22:01.365Z,33.06
2022-08-11T07:22:51.474Z,33.39
2022-08-11T07:24:14.686Z,33.21
2022-08-11T07:25:36.353Z,32.42
2022-08-11T07:27:02.696Z,33.22
2022-08-11T07:28:33.467Z,34.04
2022-08-11T07:29:39.318Z,33.23
2022-08-11T07:30:43.018Z,34.30
2022-08-11T07:31:51.260Z,35.29
2022-08-11T07:32:57.327Z,34.28
2022-08-11T07:34:15.913Z,34.46
2022-08-11T07:35:34.642Z,34.51
2022-08-11T07:36:43.248Z,33.92
2022-08-11T07:38:01.351Z,34.01
2022-08-11T07:39:07.926Z,33.03
2022-08-11T07:40:11.732Z,32.66
2022-08-11T07:41:15.766Z,33.08
2022-08-11T07:42:23.985Z,34.95
2022-08-11T07:43:26.565Z,33.84
2022-08-11T07:44:35.082Z,33.24
2022-08-11T07:46:04.757Z,32.59
2022-08-11T07:47:25.876Z,32.99
2022-08-11T07:48:48.611Z,33.01
2022-08-11T07:50:12.405Z,32.55
2022-08-11T07:51:38.487Z,32.76
2022-08-11T07:52:41.216Z,32.46
2022-08-11T07:53:58.712Z,33.36
2022-08-11T07:55:13.899Z,33.85
2022-08-11T07:56:24.905Z,33.36
2022-08-11T07:58:16.499Z,34.53
2022-08-11T08:00:04.124Z,33.51
2022-08-11T08:01:38.875Z,34.51
2022-08-11T08:03:02.570Z,34.29
2022-08-11T08:04:25.418Z,33.15
2022-08-11T08:05:46.721Z,33.86
2022-08-11T08:07:08.249Z,34.13
2022-08-11T08:08:30.453Z,33.26
2022-08-11T08:09:54.982Z,34.82
2022-08-11T08:11:16.436Z,35.62
2022-08-11T08:12:40.844Z,33.87
2022-08-11T08:14:05.582Z,33.63
2022-08-11T08:15:28.570Z,34.14
2022-08-11T08:16:50.538Z,32.89
2022-08-11T08:18:20.903Z,35.01
2022-08-11T08:19:21.871Z,32.79
2022-08-11T08:20:50.457Z,32.41
2022-08-11T08:21:53.668Z,31.43
2022-08-11T08:23:10.088Z,31.29
2022-08-11T08:24:12.916Z,31.11
2022-08-11T08:25:15.720Z,31.44
2022-08-11T08:26:37.359Z,30.93
2022-08-11T08:27:40.258Z,31.52
2022-08-11T08:28:46.787Z,31.27
2022-08-11T08:30:08.304Z,31.84
2022-08-11T08:31:11.084Z,32.15
2022-08-11T08:32:14.406Z,32.18
2022-08-11T08:33:35.123Z,33.38
2022-08-11T08:34:40.374Z,33.82
2022-08-11T08:35:54.071Z,31.84
2022-08-11T08:36:58.305Z,32.57
2022-08-11T08:38:01.476Z,32.74
2022-08-11T08:39:03.626Z,31.59
2022-08-11T08:40:09.964Z,31.80
2022-08-11T08:41:16.663Z,31.19
2022-08-11T08:42:27.722Z,30.50
2022-08-11T08:43:32.526Z,30.67
2022-08-11T08:45:06.105Z,31.95
2022-08-11T08:46:10.718Z,31.57
2022-08-11T08:47:41.664Z,31.14
2022-08-11T08:48:43.368Z,31.72
2022-08-11T08:49:51.923Z,32.02
2022-08-11T08:51:21.953Z,32.24
2022-08-11T08:52:31.895Z,32.41
2022-08-11T08:53:52.351Z,32.08
2022-08-11T08:55:00.294Z,31.35
2022-08-11T08:56:03.470Z,31.80
2022-08-11T08:57:08.443Z,32.52
2022-08-11T08:58:12.501Z,32.94
2022-08-11T08:59:16.689Z,33.14
2022-08-11T09:00:23.369Z,32.91
2022-08-11T09:01:31.460Z,32.12
2022-08-11T09:02:39.707Z,31.59
2022-08-11T09:04:05.240Z,31.18
2022-08-11T09:05:08.119Z,30.12
2022-08-11T09:06:11.385Z,31.05
2022-08-11T09:07:17.115Z,31.32
2022-08-11T09:08:22.034Z,31.22
2022-08-11T09:09:25.955Z,31.27
2022-08-11T09:10:31.159Z,31.66
2022-08-11T09:11:52.995Z,32.08
2022-08-11T09:12:55.672Z,32.29
2022-08-11T09:14:05.161Z,31.85
2022-08-11T09:15:10.616Z,31.94
2022-08-11T09:16:16.227Z,32.32
2022-08-11T09:17:20.534Z,31.82
2022-08-11T09:18:22.982Z,31.61
2022-08-11T09:19:26.885Z,30.99
2022-08-11T09:20:34.551Z,31.35
2022-08-11T09:21:48.410Z,31.11
2022-08-11T09:24:06.708Z,31.40
2022-08-11T09:24:56.347Z,30.61
2022-08-11T09:26:19.667Z,30.87
2022-08-11T09:27:24.387Z,30.89
2022-08-11T09:28:29.824Z,30.86
2022-08-11T09:29:33.206Z,31.01
2022-08-11T09:30:36.051Z,30.75
2022-08-11T09:31:40.348Z,30.71
2022-08-11T09:32:43.537Z,30.46
2022-08-11T09:33:47.071Z,29.69
2022-08-11T09:34:52.490Z,30.05
2022-08-11T09:35:57.817Z,30.12
2022-08-11T09:37:28.386Z,30.01
2022-08-11T09:39:00.370Z,29.34
2022-08-11T09:40:23.150Z,29.88
2022-08-11T09:42:01.943Z,29.68
2022-08-11T09:43:20.189Z,29.75
2022-08-11T09:44:41.985Z,29.99
2022-08-11T09:45:51.656Z,29.69
2022-08-11T09:46:59.525Z,29.28
2022-08-11T09:48:05.457Z,29.49
2022-08-11T09:49:08.948Z,29.19
2022-08-11T09:50:15.281Z,29.05
2022-08-11T09:51:18.131Z,28.31
2022-08-11T09:52:22.861Z,28.22
2022-08-11T09:53:41.065Z,28.42
2022-08-11T09:54:48.241Z,28.59
2022-08-11T09:55:54.953Z,28.34
2022-08-11T09:57:17.030Z,28.36
2022-08-11T09:58:42.365Z,28.57
2022-08-11T09:59:42.804Z,28.71
2022-08-11T10:00:49.418Z,28.76
2022-08-11T10:02:00.714Z,28.80
2022-08-11T10:03:07.480Z,28.84
2022-08-11T10:04:17.705Z,28.39
2022-08-11T10:05:39.848Z,27.91
2022-08-11T10:07:04.497Z,28.11
2022-08-11T10:08:12.715Z,28.15
2022-08-11T10:09:21.103Z,28.36
2022-08-11T10:10:27.391Z,28.24
2022-08-11T10:11:30.560Z,28.57
2022-08-11T10:12:36.739Z,28.54
2022-08-11T10:14:32.825Z,28.63
2022-08-11T10:15:38.454Z,28.28
2022-08-11T10:16:43.128Z,28.15
2022-08-11T10:18:08.984Z,27.68
2022-08-11T10:19:11.859Z,27.78
2022-08-11T10:20:14.832Z,27.70
2022-08-11T10:21:30.998Z,27.96
2022-08-11T10:22:53.867Z,28.18
2022-08-11T10:24:18.444Z,28.37
2022-08-11T10:25:40.117Z,27.84
2022-08-11T10:26:55.940Z,28.15
2022-08-11T10:28:28.711Z,28.04
2022-08-11T10:29:49.814Z,28.08
2022-08-11T10:31:32.569Z,28.02
2022-08-11T10:33:10.617Z,27.95
2022-08-11T10:34:24.631Z,27.71
2022-08-11T10:35:32.195Z,27.79
2022-08-11T10:36:51.042Z,27.57
2022-08-11T10:38:06.531Z,27.44
2022-08-11T10:39:18.054Z,27.53
2022-08-11T10:40:24.438Z,27.30
2022-08-11T10:42:08.596Z,26.95
2022-08-11T10:43:14.539Z,27.10
2022-08-11T10:44:45.570Z,27.37
2022-08-11T10:46:36.549Z,27.42
2022-08-11T10:47:44.456Z,26.89
2022-08-11T10:48:52.453Z,27.10
2022-08-11T10:50:21.993Z,27.24
2022-08-11T10:51:50.561Z,27.37
2022-08-11T10:53:18.507Z,27.25
2022-08-11T10:54:44.811Z,27.26
2022-08-11T10:56:08.632Z,27.25
2022-08-11T10:57:30.963Z,27.02
2022-08-11T10:58:52.204Z,27.09
2022-08-11T10:59:56.071Z,26.78
2022-08-11T11:01:00.932Z,26.58
2022-08-11T11:02:03.888Z,26.58
2022-08-11T11:03:23.070Z,26.44
2022-08-11T11:04:50.968Z,26.24
2022-08-11T11:06:28.836Z,26.17
2022-08-11T11:07:30.857Z,26.05
2022-08-11T11:08:57.699Z,26.09
2022-08-11T11:10:08.785Z,26.20
2022-08-11T11:11:18.444Z,26.21
2022-08-11T11:13:04.902Z,26.31
2022-08-11T11:14:30.444Z,26.44
2022-08-11T11:15:54.576Z,26.47
2022-08-11T11:17:16.762Z,26.38
2022-08-11T11:18:23.251Z,26.15
2022-08-11T11:19:28.063Z,26.21
2022-08-11T11:20:47.839Z,26.13
2022-08-11T11:21:53.988Z,26.21
2022-08-11T11:23:01.936Z,26.19
2022-08-11T11:24:41.475Z,26.27
2022-08-11T11:26:13.075Z,26.42
2022-08-11T11:27:28.736Z,26.43
2022-08-11T11:28:55.339Z,26.41
2022-08-11T11:30:08.559Z,26.49
2022-08-11T11:31:31.578Z,26.37
2022-08-11T11:32:49.936Z,26.37
2022-08-11T11:34:12.344Z,26.41
2022-08-11T11:35:28.151Z,26.42
2022-08-11T11:36:50.877Z,26.56
2022-08-11T11:38:03.997Z,26.62
2022-08-11T11:39:18.607Z,26.54
2022-08-11T11:40:28.692Z,26.71
2022-08-11T11:41:35.616Z,26.78
2022-08-11T11:42:42.056Z,26.59
2022-08-11T11:43:46.215Z,26.57
2022-08-11T11:44:49.519Z,26.52
2022-08-11T11:45:53.198Z,26.40
2022-08-11T11:46:56.875Z,26.58
2022-08-11T11:48:01.436Z,26.58
2022-08-11T11:49:15.323Z,26.52
2022-08-11T11:50:25.119Z,26.23
2022-08-11T11:51:37.573Z,26.23
2022-08-11T11:52:43.924Z,26.23
2022-08-11T11:53:48.811Z,26.24
2022-08-11T11:54:56.348Z,26.08
2022-08-11T11:56:00.549Z,26.04
2022-08-11T11:57:23.359Z,26.14
2022-08-11T11:58:48.068Z,26.22
2022-08-11T12:00:10.472Z,26.16
2022-08-11T12:01:17.339Z,26.16
2022-08-11T12:02:20.461Z,26.24
2022-08-11T12:03:27.501Z,26.37
2022-08-11T12:04:33.314Z,26.22
2022-08-11T12:05:37.981Z,26.31
2022-08-11T12:06:42.374Z,26.33
2022-08-11T12:08:05.294Z,26.44
2022-08-11T12:09:18.597Z,26.26
2022-08-11T12:10:24.805Z,26.33
2022-08-11T12:11:48.791Z,26.33
2022-08-11T12:13:13.515Z,26.38
2022-08-11T12:14:21.967Z,26.28
2022-08-11T12:16:03.633Z,26.30
2022-08-11T12:16:51.860Z,26.22
2022-08-11T12:17:55.706Z,26.22
2022-08-11T12:19:00.924Z,26.21
2022-08-11T12:20:04.918Z,26.37
2022-08-11T12:21:29.211Z,26.40
2022-08-11T12:22:50.704Z,26.33
2022-08-11T12:24:14.447Z,26.37
2022-08-11T12:25:37.493Z,26.24
2022-08-11T12:27:16.278Z,26.29
2022-08-11T12:28:23.212Z,26.26
2022-08-11T12:29:35.807Z,26.29
2022-08-11T12:31:46.981Z,26.45
2022-08-11T12:32:50.853Z,26.48
2022-08-11T12:34:00.187Z,26.50
2022-08-11T12:35:03.437Z,26.26
2022-08-11T12:36:06.691Z,26.28
2022-08-11T12:37:14.030Z,26.29
2022-08-11T12:38:18.321Z,26.23
2022-08-11T12:40:16.415Z,26.15
2022-08-11T12:41:41.017Z,26.10
2022-08-11T12:43:20.664Z,26.16
2022-08-11T12:44:47.469Z,26.33
2022-08-11T12:45:59.034Z,26.32
2022-08-11T12:47:02.545Z,26.28
2022-08-11T12:48:59.136Z,26.31
2022-08-11T12:50:22.714Z,26.41
2022-08-11T12:52:11.528Z,26.37
2022-08-11T12:53:13.297Z,26.46
2022-08-11T12:54:23.229Z,26.44
2022-08-11T12:56:03.646Z,26.40
2022-08-11T12:57:38.063Z,26.31
2022-08-11T12:58:43.557Z,26.33
2022-08-11T13:00:08.168Z,26.40
2022-08-11T13:01:32.698Z,26.36
2022-08-11T13:02:54.441Z,26.14
2022-08-11T13:04:19.061Z,26.14
2022-08-11T13:05:22.704Z,26.24
2022-08-11T13:06:28.042Z,26.29
2022-08-11T13:07:50.554Z,26.27
2022-08-11T13:09:00.992Z,26.26
2022-08-11T13:10:07.064Z,26.32
2022-08-11T13:11:55.548Z,26.34
2022-08-11T13:12:59.797Z,26.35
2022-08-11T13:14:03.741Z,26.37
2022-08-11T13:15:08.276Z,26.30
2022-08-11T13:16:11.695Z,26.32
2022-08-11T13:17:43.545Z,26.23
2022-08-11T13:18:47.104Z,26.24
2022-08-11T13:19:50.244Z,26.22
2022-08-11T13:20:54.838Z,26.21
2022-08-11T13:22:02.925Z,26.19
2022-08-11T13:23:06.913Z,26.23
2022-08-11T13:24:09.972Z,26.25
2022-08-11T13:25:18.946Z,26.30
2022-08-11T13:26:25.023Z,26.30
2022-08-11T13:27:48.963Z,26.26
2022-08-11T13:28:54.715Z,26.14
2022-08-11T13:30:17.929Z,26.09
2022-08-11T13:31:20.554Z,26.23
2022-08-11T13:32:26.845Z,26.29
2022-08-11T13:33:30.114Z,26.28
2022-08-11T13:34:33.624Z,26.30
2022-08-11T13:35:39.509Z,26.34
2022-08-11T13:36:43.244Z,26.39
2022-08-11T13:38:19.184Z,26.35
2022-08-11T13:39:14.308Z,26.29
2022-08-11T13:40:27.870Z,26.37
2022-08-11T13:41:39.511Z,26.44
2022-08-11T13:42:42.281Z,26.33
2022-08-11T13:43:45.683Z,26.40
2022-08-11T13:44:50.832Z,26.43
2022-08-11T13:46:13.896Z,26.38
2022-08-11T13:47:16.753Z,26.39
2022-08-11T13:48:19.203Z,26.32
2022-08-11T13:49:22.827Z,26.37
2022-08-11T13:50:45.399Z,26.35
2022-08-11T13:51:48.603Z,26.29
2022-08-11T13:52:53.470Z,26.38
2022-08-11T13:53:57.892Z,26.40
2022-08-11T13:55:08.556Z,26.40
2022-08-11T13:56:10.985Z,26.36
2022-08-11T13:58:09.096Z,26.38
2022-08-11T13:58:40.564Z,26.17
2022-08-11T13:59:52.483Z,26.30
2022-08-11T14:00:56.286Z,26.29
2022-08-11T14:02:28.799Z,26.28
2022-08-11T14:04:29.733Z,26.32
2022-08-11T14:05:17.964Z,26.29
2022-08-11T14:06:22.833Z,26.21
2022-08-11T14:07:32.964Z,26.20
2022-08-11T14:08:41.791Z,26.25
2022-08-11T14:09:47.237Z,26.16
2022-08-11T14:12:23.021Z,26.12
2022-08-11T14:13:06.379Z,26.18
2022-08-11T14:14:13.866Z,26.24
2022-08-11T14:15:34.037Z,26.29
2022-08-11T14:16:43.112Z,26.26
2022-08-11T14:17:48.974Z,26.26
2022-08-11T14:19:00.662Z,26.17
2022-08-11T14:20:14.169Z,26.13
2022-08-11T14:21:55.581Z,26.12
2022-08-11T14:22:59.599Z,26.11
2022-08-11T14:24:04.997Z,26.12
2022-08-11T14:25:07.691Z,26.14
2022-08-11T14:26:23.806Z,26.14
2022-08-11T14:28:30.424Z,26.11
2022-08-11T14:29:06.130Z,26.03
2022-08-11T14:30:28.847Z,26.05
2022-08-11T14:31:33.774Z,26.06
2022-08-11T14:32:36.224Z,26.12
2022-08-11T14:33:58.236Z,26.02
2022-08-11T14:35:01.509Z,25.95
2022-08-11T14:36:07.731Z,25.94
2022-08-11T14:37:21.998Z,25.92
2022-08-11T14:38:24.650Z,25.90
2022-08-11T14:39:30.027Z,25.95
2022-08-11T14:40:51.344Z,25.90
2022-08-11T14:42:14.975Z,25.91
2022-08-11T14:44:13.139Z,25.95
2022-08-11T14:45:21.211Z,25.85
2022-08-11T14:46:44.304Z,25.88
2022-08-11T14:47:50.725Z,25.91
2022-08-11T14:48:55.463Z,25.95
2022-08-11T14:50:10.398Z,25.91
2022-08-11T14:51:15.157Z,25.83
2022-08-11T14:52:21.808Z,25.88
2022-08-11T14:53:24.593Z,25.88
2022-08-11T14:54:49.355Z,25.85
2022-08-11T14:56:12.589Z,25.82
2022-08-11T14:57:16.500Z,25.76
2022-08-11T14:58:22.402Z,25.78
2022-08-11T14:59:26.641Z,25.77
2022-08-11T15:00:30.453Z,25.80
2022-08-11T15:01:51.774Z,25.80
2022-08-11T15:03:13.795Z,25.81
2022-08-11T15:04:36.555Z,25.81
2022-08-11T15:05:56.582Z,25.78
2022-08-11T15:07:00.515Z,25.78
2022-08-11T15:08:03.147Z,25.76
2022-08-11T15:09:09.002Z,25.76
2022-08-11T15:10:13.448Z,25.75
2022-08-11T15:11:37.560Z,25.76
2022-08-11T15:12:42.823Z,25.77
2022-08-11T15:13:45.224Z,25.74
2022-08-11T15:15:07.822Z,25.75
2022-08-11T15:16:45.706Z,25.71
2022-08-11T15:17:49.447Z,25.69
2022-08-11T15:18:52.100Z,25.72
2022-08-11T15:20:15.062Z,25.87
2022-08-11T15:21:36.073Z,25.95
2022-08-11T15:22:57.049Z,25.92
2022-08-11T15:24:17.880Z,25.87
2022-08-11T15:25:21.142Z,25.80
2022-08-11T15:26:48.722Z,25.75
2022-08-11T15:28:13.259Z,25.72
2022-08-11T15:29:40.167Z,25.65
2022-08-11T15:31:03.177Z,25.64
2022-08-11T15:32:20.749Z,25.60
2022-08-11T15:33:44.906Z,25.60
2022-08-11T15:35:10.310Z,25.59
2022-08-11T15:36:33.848Z,25.56
2022-08-11T15:37:38.112Z,25.57
2022-08-11T15:38:55.443Z,25.54
2022-08-11T15:40:30.163Z,25.49
2022-08-11T15:42:03.061Z,25.46
2022-08-11T15:43:46.671Z,25.35
2022-08-11T15:45:15.727Z,25.34
2022-08-11T15:46:29.834Z,25.32
2022-08-11T15:48:02.479Z,25.30
2022-08-11T15:50:11.755Z,25.28
2022-08-11T15:51:04.793Z,25.28
2022-08-11T15:52:13.396Z,25.29
2022-08-11T15:53:32.399Z,25.26
2022-08-11T15:54:39.817Z,25.26
2022-08-11T15:55:44.069Z,25.26
2022-08-11T15:56:50.321Z,25.23
2022-08-11T15:58:14.154Z,25.26
2022-08-11T15:59:42.940Z,25.21
2022-08-11T16:01:09.012Z,25.19
2022-08-11T16:02:33.039Z,25.16
2022-08-11T16:04:12.563Z,25.13
2022-08-11T16:05:45.855Z,25.11
2022-08-11T16:06:51.843Z,25.09
2022-08-11T16:07:55.934Z,25.07
2022-08-11T16:09:05.116Z,25.07
2022-08-11T16:10:22.444Z,25.05
2022-08-11T16:11:27.736Z,25.05
2022-08-11T16:12:33.283Z,24.99
2022-08-11T16:13:41.979Z,24.95
2022-08-11T16:15:06.357Z,24.95
2022-08-11T16:16:16.931Z,24.91
2022-08-11T16:17:24.419Z,24.89
2022-08-11T16:18:40.942Z,24.87
2022-08-11T16:19:46.843Z,24.84
2022-08-11T16:20:55.594Z,24.82
2022-08-11T16:21:58.080Z,24.82
2022-08-11T16:27:04.892Z,24.72
2022-08-11T16:27:24.473Z,24.72
2022-08-11T16:28:29.838Z,24.68
2022-08-11T16:29:33.927Z,24.65
2022-08-11T16:30:39.349Z,24.63
2022-08-11T16:32:02.913Z,24.63
2022-08-11T16:33:48.186Z,24.61
2022-08-11T16:34:50.953Z,24.57
2022-08-11T16:36:13.891Z,24.60
2022-08-11T16:37:35.316Z,24.58
2022-08-11T16:38:40.319Z,24.55
2022-08-11T16:39:44.291Z,24.51
2022-08-11T16:40:52.822Z,24.48
2022-08-11T16:43:08.533Z,24.47
2022-08-11T16:44:00.847Z,24.44
2022-08-11T16:45:23.979Z,24.40
2022-08-11T16:46:45.823Z,24.37
2022-08-11T16:48:03.381Z,24.31
2022-08-11T16:49:18.402Z,24.26
2022-08-11T16:50:21.427Z,24.23
2022-08-11T16:51:23.848Z,24.23
2022-08-11T16:52:26.304Z,24.24
2022-08-11T16:53:54.595Z,24.23
2022-08-11T16:54:53.061Z,24.16
2022-08-11T16:55:57.858Z,24.14
2022-08-11T16:57:23.425Z,24.12
2022-08-11T16:58:46.094Z,24.06